Time;durP1;ratioP1;P1;durP2;ratioP2;P2;SDS_P1;SDS_P2;PMS_P1;PMS_P2;Temp;Humidity;BMP_temperature;BMP_pressure;BME280_temperature;BME280_humidity;BME280_pressure;Samples;Min_cycle;Max_cycle;Signal;HPM_P1;HPM_P2
2022/11/21 00:01:51;;;;;;;5.97;1.93;;;6.80;99.90;;;;;;10423979;28;20605;-80
2022/11/21 00:06:51;;;;;;;6.20;2.33;;;6.80;99.90;;;;;;10477173;28;20243;-80
2022/11/21 00:11:52;;;;;;;6.63;2.37;;;6.90;99.90;;;;;;10432650;28;20287;-79
2022/11/21 00:16:53;;;;;;;6.27;2.30;;;6.90;99.90;;;;;;10431978;28;20268;-78
2022/11/21 00:21:53;;;;;;;7.20;2.27;;;6.90;99.90;;;;;;10435093;28;20228;-73
2022/11/21 00:26:54;;;;;;;6.73;2.53;;;6.90;99.90;;;;;;10448558;28;20704;-74
2022/11/21 00:31:54;;;;;;;5.40;2.10;;;6.90;99.90;;;;;;10434341;28;20227;-75
2022/11/21 00:36:58;;;;;;;5.07;1.73;;;6.80;99.90;;;;;;10446361;28;20238;-76
2022/11/21 00:41:59;;;;;;;5.87;1.90;;;6.60;99.90;;;;;;10440658;28;20642;-81
2022/11/21 00:46:59;;;;;;;7.33;2.20;;;6.60;99.90;;;;;;10453801;28;20220;-83
2022/11/21 00:52:00;;;;;;;7.53;2.27;;;6.50;99.90;;;;;;10447438;28;20224;-78
2022/11/21 00:57:01;;;;;;;6.73;2.23;;;6.50;99.90;;;;;;10442342;28;20303;-78
2022/11/21 01:02:02;;;;;;;8.70;2.50;;;6.50;99.90;;;;;;10435146;28;20224;-77
2022/11/21 01:07:02;;;;;;;7.53;2.10;;;6.60;99.90;;;;;;10430085;28;20959;-77
2022/11/21 01:12:03;;;;;;;12.60;2.80;;;6.60;99.90;;;;;;10437325;28;20224;-82
2022/11/21 01:17:04;;;;;;;8.13;2.67;;;6.70;99.90;;;;;;10442995;28;20247;-80
2022/11/21 01:22:04;;;;;;;13.57;3.10;;;6.60;99.90;;;;;;10431698;28;20746;-78
2022/11/21 01:27:05;;;;;;;11.73;2.80;;;6.60;99.90;;;;;;10430710;28;20220;-85
2022/11/21 01:32:09;;;;;;;7.60;2.50;;;6.60;99.90;;;;;;10421753;28;20293;-78
2022/11/21 01:37:09;;;;;;;8.93;2.40;;;6.70;99.90;;;;;;10442819;28;20767;-79
2022/11/21 01:42:12;;;;;;;8.60;2.43;;;6.70;99.90;;;;;;10431531;28;20307;-80
2022/11/21 01:47:13;;;;;;;8.50;2.27;;;6.60;99.90;;;;;;10439524;28;20211;-79
2022/11/21 01:52:24;;;;;;;10.57;2.30;;;6.50;99.90;;;;;;10443813;28;20223;-80
2022/11/21 01:57:28;;;;;;;10.17;2.50;;;6.30;99.90;;;;;;10436929;28;20223;-79
2022/11/21 02:02:32;;;;;;;9.10;2.50;;;6.30;99.90;;;;;;10436349;28;20230;-75
2022/11/21 02:07:38;;;;;;;11.13;2.67;;;6.10;99.90;;;;;;10437596;28;20216;-75
2022/11/21 02:12:49;;;;;;;6.53;2.20;;;6.00;99.90;;;;;;10426805;28;20212;-77
2022/11/21 02:17:50;;;;;;;8.97;2.47;;;6.00;99.90;;;;;;10455664;28;20258;-77
2022/11/21 02:23:12;;;;;;;10.30;2.30;;;5.90;99.90;;;;;;10443358;28;20334;-76
2022/11/21 02:28:19;;;;;;;7.37;2.60;;;5.90;99.90;;;;;;10422595;28;20247;-76
2022/11/21 02:33:20;;;;;;;11.23;3.00;;;5.90;99.90;;;;;;10432040;28;20304;-79
2022/11/21 02:38:39;;;;;;;9.53;2.33;;;5.90;99.90;;;;;;10429453;28;20224;-77
2022/11/21 02:43:51;;;;;;;10.27;2.73;;;5.90;99.90;;;;;;10444025;28;20228;-78
2022/11/21 02:48:52;;;;;;;13.73;2.90;;;5.80;99.90;;;;;;10446370;28;20710;-78
2022/11/21 02:53:52;;;;;;;9.57;2.70;;;5.80;99.90;;;;;;10418358;28;20220;-78
2022/11/21 02:58:53;;;;;;;13.93;2.87;;;5.70;99.90;;;;;;10430587;28;20232;-77
2022/11/21 03:03:54;;;;;;;12.40;3.07;;;5.70;99.90;;;;;;10426888;28;20243;-79
2022/11/21 03:08:55;;;;;;;11.40;2.60;;;5.70;99.90;;;;;;10438104;28;20220;-79
2022/11/21 03:13:57;;;;;;;9.30;2.37;;;5.60;99.90;;;;;;10442315;28;20223;-78
2022/11/21 03:18:58;;;;;;;10.50;2.60;;;5.60;99.90;;;;;;10437855;28;20255;-79
2022/11/21 03:23:59;;;;;;;11.47;2.67;;;5.60;99.90;;;;;;10421022;28;20696;-77
2022/11/21 03:28:59;;;;;;;6.57;2.30;;;5.60;99.90;;;;;;10427412;28;20225;-79
2022/11/21 03:34:01;;;;;;;12.23;2.77;;;5.60;99.90;;;;;;10435984;28;20890;-79
2022/11/21 03:39:03;;;;;;;12.50;2.77;;;5.60;99.90;;;;;;10438209;28;20372;-78
2022/11/21 03:44:06;;;;;;;7.87;2.60;;;5.60;99.90;;;;;;10438574;28;20264;-81
2022/11/21 03:49:11;;;;;;;9.50;2.47;;;5.60;99.90;;;;;;10432486;28;20216;-78
2022/11/21 03:54:12;;;;;;;7.07;2.63;;;5.50;99.90;;;;;;10443222;28;20212;-78
2022/11/21 03:59:12;;;;;;;12.03;2.70;;;5.50;99.90;;;;;;10436538;28;20220;-78
2022/11/21 04:04:13;;;;;;;11.80;2.93;;;5.50;99.90;;;;;;10439787;28;20220;-80
2022/11/21 04:09:14;;;;;;;11.23;2.77;;;5.60;99.90;;;;;;10439156;28;20578;-79
2022/11/21 04:14:14;;;;;;;8.80;2.77;;;5.60;99.90;;;;;;10450447;28;20355;-75
2022/11/21 04:19:15;;;;;;;8.80;2.70;;;5.80;99.90;;;;;;10466037;28;20220;-77
2022/11/21 04:24:15;;;;;;;8.40;2.07;;;5.90;99.90;;;;;;10438422;28;20231;-76
2022/11/21 04:29:16;;;;;;;10.40;3.40;;;5.90;99.90;;;;;;10418314;28;20220;-76
2022/11/21 04:34:17;;;;;;;5.80;2.30;;;6.00;99.90;;;;;;10443902;28;20216;-77
2022/11/21 04:39:17;;;;;;;7.23;2.33;;;5.90;99.90;;;;;;10443174;28;20290;-77
2022/11/21 04:44:18;;;;;;;12.20;3.23;;;5.90;99.90;;;;;;10438094;28;20235;-77
2022/11/21 04:49:20;;;;;;;4.30;2.20;;;5.90;99.90;;;;;;10451587;28;20725;-79
2022/11/21 04:54:21;;;;;;;6.53;2.10;;;5.90;99.90;;;;;;10426626;28;20326;-77
2022/11/21 04:59:21;;;;;;;8.63;2.50;;;5.90;99.90;;;;;;10432667;28;20322;-77
2022/11/21 05:04:22;;;;;;;10.97;2.90;;;5.80;99.90;;;;;;10446841;28;20226;-77
2022/11/21 05:09:22;;;;;;;7.87;2.50;;;5.90;99.90;;;;;;10442144;28;20215;-78
2022/11/21 05:14:25;;;;;;;7.40;2.70;;;5.90;99.90;;;;;;10432881;28;20216;-79
2022/11/21 05:19:25;;;;;;;4.93;2.40;;;6.00;99.90;;;;;;10429646;28;20267;-79
2022/11/21 05:24:26;;;;;;;10.27;3.07;;;6.00;99.90;;;;;;10453620;28;20770;-78
2022/11/21 05:29:26;;;;;;;7.20;2.77;;;6.00;99.90;;;;;;10432966;28;20726;-78
2022/11/21 05:34:27;;;;;;;6.20;2.43;;;6.00;99.90;;;;;;10440387;28;20638;-78
2022/11/21 05:39:29;;;;;;;6.77;2.50;;;6.10;99.90;;;;;;10432798;28;20239;-77
2022/11/21 05:44:29;;;;;;;6.60;2.40;;;6.10;99.90;;;;;;10437962;28;20287;-75
2022/11/21 05:49:30;;;;;;;5.67;2.37;;;6.20;99.90;;;;;;10430017;28;20216;-78
2022/11/21 05:54:31;;;;;;;6.23;2.40;;;6.20;99.90;;;;;;10429309;28;20254;-77
2022/11/21 05:59:31;;;;;;;7.00;3.60;;;6.20;99.90;;;;;;10416615;28;20303;-78
2022/11/21 06:04:32;;;;;;;12.80;6.40;;;6.10;99.90;;;;;;10430404;28;20267;-77
2022/11/21 06:09:32;;;;;;;9.83;4.53;;;6.00;99.90;;;;;;10460915;28;20218;-77
2022/11/21 06:14:33;;;;;;;7.13;3.50;;;5.90;99.90;;;;;;10429619;28;20702;-76
2022/11/21 06:19:33;;;;;;;13.97;7.30;;;5.80;99.90;;;;;;10416520;28;20902;-76
2022/11/21 06:24:34;;;;;;;10.30;4.40;;;5.70;99.90;;;;;;10420366;28;20236;-78
2022/11/21 06:29:35;;;;;;;5.23;2.17;;;5.60;99.90;;;;;;10422983;28;20227;-77
2022/11/21 06:34:35;;;;;;;4.43;1.80;;;5.60;99.90;;;;;;10434134;28;20246;-74
2022/11/21 06:39:36;;;;;;;4.50;1.57;;;5.50;99.90;;;;;;10437794;28;20212;-73
2022/11/21 06:44:36;;;;;;;5.37;2.00;;;5.50;99.90;;;;;;10426223;28;20717;-76
2022/11/21 06:49:37;;;;;;;4.93;1.83;;;5.60;99.90;;;;;;10425881;28;20227;-79
2022/11/21 06:54:38;;;;;;;4.23;1.60;;;5.70;99.90;;;;;;10436803;28;20223;-77
2022/11/21 06:59:38;;;;;;;4.27;1.83;;;5.90;99.90;;;;;;10431949;28;20311;-78
2022/11/21 07:04:39;;;;;;;2.47;1.90;;;6.10;99.90;;;;;;10438061;28;20220;-78
2022/11/21 07:09:40;;;;;;;2.37;1.43;;;6.20;99.90;;;;;;10413712;28;20864;-78
2022/11/21 07:14:40;;;;;;;2.93;1.10;;;6.30;99.90;;;;;;10433785;28;20311;-78
2022/11/21 07:19:41;;;;;;;4.67;1.63;;;6.40;99.90;;;;;;10437736;28;20216;-79
2022/11/21 07:24:41;;;;;;;1.73;1.43;;;6.60;99.90;;;;;;10438404;28;20710;-78
2022/11/21 07:29:42;;;;;;;4.43;1.03;;;6.70;99.90;;;;;;10446141;28;20289;-75
2022/11/21 07:34:43;;;;;;;4.47;1.97;;;6.80;99.90;;;;;;10450459;28;20259;-77
2022/11/21 07:39:43;;;;;;;3.70;1.00;;;6.90;99.90;;;;;;10452241;28;20242;-77
2022/11/21 07:44:44;;;;;;;2.93;1.20;;;6.90;99.90;;;;;;10445475;28;20737;-77
2022/11/21 07:49:44;;;;;;;4.57;1.33;;;7.00;99.90;;;;;;10450411;28;20378;-77
2022/11/21 07:54:45;;;;;;;3.20;1.30;;;7.10;99.90;;;;;;10446810;28;20603;-77
2022/11/21 07:59:45;;;;;;;2.73;1.43;;;7.40;99.90;;;;;;10449125;28;20243;-78
2022/11/21 08:04:49;;;;;;;5.60;1.33;;;7.90;99.90;;;;;;10436627;28;20275;-78
2022/11/21 08:09:50;;;;;;;2.90;1.03;;;8.40;99.90;;;;;;10450818;28;20692;-78
2022/11/21 08:14:51;;;;;;;4.63;1.00;;;9.20;99.90;;;;;;10455381;28;20242;-78
2022/11/21 08:19:51;;;;;;;2.77;1.10;;;10.80;99.90;;;;;;10436714;28;20296;-71
2022/11/21 08:24:53;;;;;;;1.93;1.00;;;12.00;99.90;;;;;;10446336;28;20229;-72
2022/11/21 08:29:54;;;;;;;4.37;1.50;;;13.20;99.90;;;;;;10439835;28;20206;-72
2022/11/21 08:34:54;;;;;;;2.93;1.20;;;12.20;99.90;;;;;;10436465;28;20230;-72
2022/11/21 08:39:57;;;;;;;3.37;1.60;;;11.60;99.90;;;;;;10439948;28;20222;-71
2022/11/21 08:44:58;;;;;;;2.87;1.50;;;12.80;99.90;;;;;;10441340;28;20253;-71
2022/11/21 08:49:58;;;;;;;3.80;1.63;;;14.00;99.90;;;;;;10441158;28;20241;-72
2022/11/21 08:54:59;;;;;;;4.67;2.23;;;17.00;99.90;;;;;;10449581;28;20706;-71
2022/11/21 08:59:59;;;;;;;4.87;1.83;;;15.70;99.90;;;;;;10442844;28;20225;-71
2022/11/21 09:05:00;;;;;;;5.13;1.70;;;14.10;99.90;;;;;;10440855;28;20310;-71
2022/11/21 09:10:01;;;;;;;4.53;1.63;;;12.40;99.90;;;;;;10433607;28;20220;-72
2022/11/21 09:20:21;;;;;;;7.10;1.90;;;10.60;99.90;;;;;;10435368;28;20232;-74
2022/11/21 09:25:21;;;;;;;5.27;1.73;;;10.30;99.90;;;;;;10440447;28;20199;-74
2022/11/21 09:30:22;;;;;;;7.53;2.00;;;10.10;99.90;;;;;;10447112;28;20236;-73
2022/11/21 09:35:23;;;;;;;5.63;1.60;;;10.30;99.90;;;;;;10457392;28;20198;-73
2022/11/21 09:40:24;;;;;;;3.97;1.60;;;11.30;99.90;;;;;;10446422;28;20250;-74
2022/11/21 09:45:40;;;;;;;8.33;2.10;;;12.90;99.90;;;;;;10440183;28;20233;-74
2022/11/21 09:50:47;;;;;;;4.93;1.63;;;13.10;99.90;;;;;;10433728;28;20688;-73
2022/11/21 09:56:11;;;;;;;4.27;1.47;;;12.40;99.90;;;;;;10445682;28;20676;-74
2022/11/21 10:01:13;;;;;;;4.93;1.40;;;11.90;99.90;;;;;;10444843;28;20218;-74
2022/11/21 10:06:19;;;;;;;3.67;1.57;;;11.40;99.90;;;;;;10441755;28;20636;-73
2022/11/21 10:12:35;;;;;;;4.30;1.70;;;12.90;99.90;;;;;;10427899;28;20219;-74
2022/11/21 10:17:16;;;;;;;2.60;1.00;;;16.20;99.90;;;;;;10444534;28;20212;-74
2022/11/21 10:22:48;;;;;;;2.37;0.90;;;17.50;99.90;;;;;;10441411;28;20280;-74
2022/11/21 10:28:02;;;;;;;7.50;1.43;;;17.60;98.10;;;;;;10442128;28;20216;-73
2022/11/21 10:33:04;;;;;;;3.90;1.17;;;17.50;96.60;;;;;;10442512;28;20333;-73
2022/11/21 10:38:19;;;;;;;6.50;1.17;;;17.70;96.40;;;;;;10444622;28;20222;-73
2022/11/21 10:48:57;;;;;;;4.50;1.33;;;15.30;99.00;;;;;;10435647;28;20307;-74
2022/11/21 10:59:29;;;;;;;2.70;1.20;;;20.70;86.50;;;;;;10429659;28;20213;-73
2022/11/21 11:04:32;;;;;;;8.03;1.30;;;19.30;79.00;;;;;;10444437;28;20224;-72
2022/11/21 11:09:34;;;;;;;3.80;1.40;;;16.20;90.00;;;;;;10439284;28;20268;-74
2022/11/21 11:14:36;;;;;;;8.40;1.43;;;14.20;95.80;;;;;;10442682;28;20227;-73
2022/11/21 11:19:37;;;;;;;4.10;1.10;;;13.70;99.50;;;;;;10441514;28;20216;-74
2022/11/21 11:24:51;;;;;;;4.50;1.50;;;13.60;99.80;;;;;;10433902;28;20245;-73
2022/11/21 11:29:51;;;;;;;4.97;1.03;;;13.20;99.90;;;;;;10444883;28;20218;-73
2022/11/21 11:35:13;;;;;;;3.43;1.27;;;12.90;99.90;;;;;;10436120;28;20221;-74
2022/11/21 11:40:20;;;;;;;5.43;1.50;;;12.50;99.90;;;;;;10439437;28;20229;-73
2022/11/21 11:51:19;;;;;;;6.63;1.57;;;12.00;99.90;;;;;;10435698;28;20229;-73
2022/11/21 11:56:32;;;;;;;4.30;1.33;;;12.10;99.90;;;;;;10442896;28;20661;-74
2022/11/21 12:01:49;;;;;;;7.40;1.60;;;12.30;99.90;;;;;;10433259;28;20224;-74
2022/11/21 12:07:14;;;;;;;7.17;1.43;;;12.40;99.90;;;;;;10443690;28;20225;-73
2022/11/21 12:12:25;;;;;;;7.70;1.40;;;12.20;99.90;;;;;;10442287;28;20374;-75
2022/11/21 12:17:44;;;;;;;6.60;1.47;;;11.80;99.90;;;;;;10440508;28;20236;-74
2022/11/21 12:22:46;;;;;;;4.03;1.20;;;11.80;99.90;;;;;;10440136;28;20250;-73
2022/11/21 12:27:52;;;;;;;6.23;1.63;;;11.70;99.90;;;;;;10456699;28;20249;-74
2022/11/21 12:33:16;;;;;;;7.60;1.73;;;11.40;99.90;;;;;;10441831;28;21910;-72
2022/11/21 12:38:50;;;;;;;4.87;1.70;;;11.30;99.90;;;;;;10460910;28;20229;-72
2022/11/21 12:44:18;;;;;;;5.43;1.70;;;11.30;99.90;;;;;;10401398;28;20318;-74
2022/11/21 12:55:04;;;;;;;5.30;2.10;;;11.30;99.90;;;;;;10429925;28;20226;-72
2022/11/21 13:00:08;;;;;;;7.13;1.90;;;11.10;99.90;;;;;;10438833;28;20285;-73
2022/11/21 13:05:15;;;;;;;5.80;1.90;;;10.80;99.90;;;;;;10396759;28;20243;-73
2022/11/21 13:10:17;;;;;;;4.90;2.00;;;10.70;99.90;;;;;;10398637;28;20936;-73
2022/11/21 13:15:25;;;;;;;4.17;1.87;;;10.60;99.90;;;;;;10400790;28;20545;-73
2022/11/21 13:20:45;;;;;;;7.13;2.10;;;10.70;99.90;;;;;;10414180;28;20226;-73
2022/11/21 13:25:45;;;;;;;7.87;2.53;;;10.60;99.90;;;;;;10400235;28;20656;-73
2022/11/21 13:30:46;;;;;;;8.63;2.20;;;10.40;99.90;;;;;;10378397;28;20282;-72
2022/11/21 13:35:49;;;;;;;5.50;1.83;;;10.10;99.90;;;;;;10397076;28;20758;-74
2022/11/21 13:46:09;;;;;;;5.83;2.17;;;9.80;99.90;;;;;;10399238;28;20225;-76
2022/11/21 13:51:25;;;;;;;6.90;2.10;;;9.80;99.90;;;;;;10384354;28;20599;-75
2022/11/21 13:56:31;;;;;;;6.20;1.87;;;9.80;99.90;;;;;;10392663;28;20265;-74
2022/11/21 14:01:51;;;;;;;3.63;1.80;;;9.80;99.90;;;;;;10397965;28;20231;-74
2022/11/21 14:06:52;;;;;;;7.13;1.80;;;9.90;99.90;;;;;;10391242;28;20222;-74
2022/11/21 14:11:53;;;;;;;5.17;1.67;;;9.90;99.90;;;;;;10387849;28;20213;-74
2022/11/21 14:17:23;;;;;;;10.37;4.93;;;9.90;99.90;;;;;;10389771;28;20245;-75
2022/11/21 14:23:02;;;;;;;8.70;2.20;;;9.90;99.90;;;;;;10389794;28;20236;-74
2022/11/21 14:28:05;;;;;;;8.00;2.17;;;9.80;99.90;;;;;;10360214;28;20211;-72
2022/11/21 14:33:27;;;;;;;12.70;4.70;;;9.80;99.90;;;;;;10398207;28;20783;-74
2022/11/21 14:38:31;;;;;;;9.00;1.93;;;9.80;99.90;;;;;;10392922;28;20234;-73
2022/11/21 14:43:32;;;;;;;7.63;1.87;;;9.60;99.90;;;;;;10385600;28;20231;-74
2022/11/21 14:48:34;;;;;;;5.77;2.20;;;9.40;99.90;;;;;;10381533;28;20227;-74
2022/11/21 14:53:40;;;;;;;9.90;4.60;;;9.10;99.90;;;;;;10391585;28;20234;-73
2022/11/21 14:58:40;;;;;;;13.63;6.67;;;8.90;99.90;;;;;;10403582;28;20603;-73
2022/11/21 15:03:56;;;;;;;7.70;2.53;;;8.70;99.90;;;;;;10390276;28;20228;-73
2022/11/21 15:08:57;;;;;;;7.07;3.00;;;8.50;99.90;;;;;;10397097;28;20688;-73
2022/11/21 15:14:04;;;;;;;6.70;2.10;;;8.30;99.90;;;;;;10388606;28;20225;-73
2022/11/21 15:19:09;;;;;;;7.30;2.10;;;8.20;99.90;;;;;;10384067;28;20245;-73
2022/11/21 15:24:28;;;;;;;5.80;2.20;;;8.10;99.90;;;;;;10381852;28;20330;-73
2022/11/21 15:29:30;;;;;;;6.70;2.53;;;8.00;99.90;;;;;;10396242;28;20238;-73
2022/11/21 15:34:30;;;;;;;8.70;3.03;;;7.80;99.90;;;;;;10386464;28;20229;-73
2022/11/21 15:39:32;;;;;;;14.83;3.00;;;7.70;99.90;;;;;;10389512;28;20710;-72
2022/11/21 15:44:33;;;;;;;5.00;2.00;;;7.70;99.90;;;;;;10402702;28;20220;-74
2022/11/21 15:49:33;;;;;;;5.63;2.03;;;7.60;99.90;;;;;;10395227;28;20220;-74
2022/11/21 15:54:34;;;;;;;9.00;2.07;;;7.70;99.90;;;;;;10390407;28;20252;-73
2022/11/21 15:59:34;;;;;;;6.80;2.20;;;7.60;99.90;;;;;;10409306;28;20601;-73
2022/11/21 16:04:35;;;;;;;12.57;2.80;;;7.50;99.90;;;;;;10387766;28;20636;-73
2022/11/21 16:09:36;;;;;;;5.63;2.40;;;7.40;99.90;;;;;;10395457;28;20606;-74
2022/11/21 16:14:37;;;;;;;5.83;2.20;;;7.50;99.90;;;;;;10390223;28;20216;-74
2022/11/21 16:19:37;;;;;;;4.73;2.10;;;7.50;99.90;;;;;;10400722;28;20225;-74
2022/11/21 16:24:38;;;;;;;7.87;2.40;;;7.50;99.90;;;;;;10388259;28;20256;-75
2022/11/21 16:29:38;;;;;;;6.80;2.80;;;7.40;99.90;;;;;;10409861;28;20216;-74
2022/11/21 16:34:40;;;;;;;9.37;2.57;;;7.50;99.90;;;;;;10386322;28;20219;-74
2022/11/21 16:39:41;;;;;;;5.93;2.37;;;7.40;99.90;;;;;;10402230;28;20239;-73
2022/11/21 16:44:42;;;;;;;7.07;2.30;;;7.20;99.90;;;;;;10392111;28;20239;-72
2022/11/21 16:49:45;;;;;;;9.13;2.70;;;7.10;99.90;;;;;;10381344;28;20304;-71
2022/11/21 16:54:46;;;;;;;5.40;2.60;;;7.00;99.90;;;;;;10400181;28;20216;-74
2022/11/21 16:59:46;;;;;;;11.07;3.10;;;6.90;99.90;;;;;;10381708;28;20589;-72
2022/11/21 17:04:47;;;;;;;7.77;3.27;;;6.80;99.90;;;;;;10397581;28;20718;-74
2022/11/21 17:09:48;;;;;;;9.40;3.40;;;6.70;99.90;;;;;;10389478;28;20259;-75
2022/11/21 17:14:49;;;;;;;9.23;3.50;;;6.60;99.90;;;;;;10391080;28;20217;-74
2022/11/21 17:19:53;;;;;;;11.07;3.37;;;6.70;99.90;;;;;;10395040;28;20312;-74
2022/11/21 17:24:54;;;;;;;9.27;3.47;;;6.70;99.90;;;;;;10393328;28;20218;-74
2022/11/21 17:29:55;;;;;;;10.17;3.33;;;6.80;99.90;;;;;;10389207;28;20223;-74
2022/11/21 17:34:55;;;;;;;10.30;3.20;;;6.80;99.90;;;;;;10385797;28;20311;-72
2022/11/21 17:39:59;;;;;;;7.47;3.80;;;6.90;99.90;;;;;;10387514;28;20225;-74
2022/11/21 17:44:59;;;;;;;11.70;3.30;;;6.90;99.90;;;;;;10390740;28;20522;-73
2022/11/21 17:50:00;;;;;;;7.90;3.47;;;6.90;99.90;;;;;;10384941;28;20304;-73
2022/11/21 17:55:00;;;;;;;8.93;3.07;;;6.90;99.90;;;;;;10390610;28;20740;-73
2022/11/21 18:00:02;;;;;;;6.20;2.93;;;6.90;99.90;;;;;;10391145;28;20307;-73
2022/11/21 18:05:03;;;;;;;7.57;3.50;;;6.80;99.90;;;;;;10390503;28;20650;-74
2022/11/21 18:10:03;;;;;;;7.80;3.27;;;6.90;99.90;;;;;;10384331;28;20256;-73
2022/11/21 18:15:04;;;;;;;9.07;3.10;;;6.90;99.90;;;;;;10432041;28;20273;-73
2022/11/21 18:20:05;;;;;;;7.80;2.50;;;6.90;99.90;;;;;;10383857;28;20244;-73
2022/11/21 18:25:06;;;;;;;7.77;2.23;;;7.00;99.90;;;;;;10407854;28;20216;-73
2022/11/21 18:30:07;;;;;;;8.67;2.50;;;7.10;99.90;;;;;;10383568;28;20177;-72
2022/11/21 18:35:08;;;;;;;11.13;2.60;;;7.20;99.90;;;;;;10391218;28;20181;-73
2022/11/21 18:40:09;;;;;;;7.77;2.17;;;7.20;99.90;;;;;;10383300;28;20263;-72
2022/11/21 18:45:10;;;;;;;8.03;2.00;;;7.30;99.90;;;;;;10381640;28;20201;-73
2022/11/21 18:50:10;;;;;;;8.53;2.50;;;7.30;99.90;;;;;;10390657;28;20838;-74
2022/11/21 18:55:11;;;;;;;8.77;2.77;;;7.30;99.90;;;;;;10380580;28;20178;-73
2022/11/21 19:00:12;;;;;;;8.63;2.33;;;7.40;99.90;;;;;;10390952;28;20232;-75
2022/11/21 19:05:13;;;;;;;8.20;3.10;;;7.40;99.90;;;;;;10391296;28;20209;-75
2022/11/21 19:10:14;;;;;;;10.13;2.67;;;7.50;99.90;;;;;;10384870;28;20177;-76
2022/11/21 19:15:17;;;;;;;5.27;1.90;;;7.50;99.90;;;;;;10399064;28;20184;-75
2022/11/21 19:20:18;;;;;;;5.90;2.30;;;7.50;99.90;;;;;;10414944;28;20196;-75
2022/11/21 19:25:18;;;;;;;7.50;2.07;;;7.40;99.90;;;;;;10390729;28;20213;-76
2022/11/21 19:30:19;;;;;;;8.53;2.40;;;7.40;99.90;;;;;;10410034;28;20716;-73
2022/11/21 19:35:22;;;;;;;8.47;2.30;;;7.40;99.90;;;;;;10410236;28;20209;-73
2022/11/21 19:40:22;;;;;;;8.77;2.93;;;7.40;99.90;;;;;;10383132;28;20205;-73
2022/11/21 19:45:23;;;;;;;6.93;2.50;;;7.40;99.90;;;;;;10396845;28;20227;-73
2022/11/21 19:50:25;;;;;;;7.33;2.50;;;7.40;99.90;;;;;;10389982;28;20673;-73
2022/11/21 19:55:26;;;;;;;6.23;2.30;;;7.30;99.90;;;;;;10390521;28;20216;-73
2022/11/21 20:00:27;;;;;;;10.83;2.63;;;7.30;99.90;;;;;;10395963;28;20217;-73
2022/11/21 20:05:31;;;;;;;8.50;2.73;;;7.20;99.90;;;;;;10396076;28;20749;-72
2022/11/21 20:10:32;;;;;;;7.80;2.70;;;7.20;99.90;;;;;;10390302;28;20224;-73
2022/11/21 20:15:38;;;;;;;5.63;2.50;;;7.10;99.90;;;;;;10396130;28;20908;-73
2022/11/21 20:20:38;;;;;;;6.83;2.70;;;7.10;99.90;;;;;;10390625;28;20605;-73
2022/11/21 20:25:41;;;;;;;10.23;3.00;;;7.20;99.90;;;;;;10395714;28;20213;-74
2022/11/21 20:30:43;;;;;;;7.80;3.30;;;7.20;99.90;;;;;;10391027;28;20224;-73
2022/11/21 20:35:43;;;;;;;6.50;3.53;;;7.20;99.90;;;;;;10390367;28;20708;-74
2022/11/21 20:40:51;;;;;;;7.83;3.10;;;7.20;99.90;;;;;;10397821;28;20315;-74
2022/11/21 20:45:52;;;;;;;6.33;2.77;;;7.20;99.90;;;;;;10386855;28;20216;-74
2022/11/21 20:50:53;;;;;;;5.73;2.47;;;7.20;99.90;;;;;;10395237;28;20213;-74
2022/11/21 20:56:09;;;;;;;9.00;2.73;;;7.20;99.90;;;;;;10398120;28;20209;-75
2022/11/21 21:01:11;;;;;;;5.23;2.60;;;7.30;99.90;;;;;;10393052;28;20227;-75
2022/11/21 21:06:14;;;;;;;5.93;2.60;;;7.30;99.90;;;;;;10386500;28;20217;-76
2022/11/21 21:11:20;;;;;;;4.77;2.60;;;7.20;99.90;;;;;;10395377;28;20247;-77
2022/11/21 21:16:28;;;;;;;5.17;2.17;;;7.20;99.90;;;;;;10396388;28;20217;-78
2022/11/21 21:21:31;;;;;;;7.33;2.83;;;7.20;99.90;;;;;;10395896;28;20224;-80
2022/11/21 21:26:35;;;;;;;6.53;2.23;;;7.20;99.90;;;;;;10395155;28;20262;-75
2022/11/21 21:31:35;;;;;;;4.90;2.20;;;7.30;99.90;;;;;;10395295;28;20229;-75
2022/11/21 21:36:36;;;;;;;6.30;2.43;;;7.20;99.90;;;;;;10394286;28;20303;-75
2022/11/21 21:41:43;;;;;;;5.97;2.47;;;7.20;99.90;;;;;;10385035;28;20304;-76
2022/11/21 21:46:44;;;;;;;7.73;2.70;;;7.20;99.90;;;;;;10393589;28;20222;-77
2022/11/21 21:51:45;;;;;;;5.20;2.50;;;7.30;99.90;;;;;;10391175;28;20204;-79
2022/11/21 21:56:46;;;;;;;7.17;2.73;;;7.30;99.90;;;;;;10398550;28;20212;-81
2022/11/21 22:01:47;;;;;;;8.10;3.43;;;7.40;99.90;;;;;;10381929;28;20308;-80
2022/11/21 22:06:48;;;;;;;6.77;3.53;;;7.50;99.90;;;;;;10387829;28;20326;-73
2022/11/21 22:11:49;;;;;;;6.93;4.07;;;7.50;99.90;;;;;;10391927;28;21046;-73
2022/11/21 22:16:50;;;;;;;8.03;3.30;;;7.50;99.90;;;;;;10391226;28;20225;-73
2022/11/21 22:21:51;;;;;;;4.97;3.03;;;7.60;99.90;;;;;;10387904;28;20228;-72
2022/11/21 22:26:51;;;;;;;3.23;1.97;;;7.60;99.90;;;;;;10390099;28;20627;-74
2022/11/21 22:31:52;;;;;;;8.67;2.50;;;7.50;99.90;;;;;;10395261;28;20279;-75
2022/11/21 22:36:53;;;;;;;10.70;3.13;;;7.50;99.90;;;;;;10399454;28;20228;-75
2022/11/21 22:41:53;;;;;;;3.93;2.10;;;7.40;99.90;;;;;;10400661;28;20722;-73
2022/11/21 22:46:54;;;;;;;5.43;2.40;;;7.40;99.90;;;;;;10388615;28;20214;-76
2022/11/21 22:51:54;;;;;;;3.50;1.80;;;7.40;99.90;;;;;;10423357;28;20293;-75
2022/11/21 22:56:55;;;;;;;4.43;1.83;;;7.30;99.90;;;;;;10386443;28;20213;-74
2022/11/21 23:01:55;;;;;;;4.80;1.93;;;7.30;99.90;;;;;;10383148;28;20286;-75
2022/11/21 23:06:59;;;;;;;4.63;1.97;;;7.30;99.90;;;;;;10387029;28;20224;-77
2022/11/21 23:11:59;;;;;;;6.90;2.47;;;7.20;99.90;;;;;;10389470;28;20217;-75
2022/11/21 23:17:01;;;;;;;7.20;2.50;;;7.20;99.90;;;;;;10383508;28;20220;-75
2022/11/21 23:22:01;;;;;;;6.57;2.00;;;7.20;99.90;;;;;;10391259;28;20220;-76
2022/11/21 23:27:03;;;;;;;5.33;1.83;;;7.20;99.90;;;;;;10382002;28;20216;-75
2022/11/21 23:32:04;;;;;;;4.23;1.93;;;7.20;99.90;;;;;;10384768;28;20310;-76
2022/11/21 23:37:05;;;;;;;6.57;1.60;;;7.20;99.90;;;;;;10388341;28;20704;-75
2022/11/21 23:42:05;;;;;;;3.23;1.63;;;7.30;99.90;;;;;;10390164;28;20290;-77
2022/11/21 23:47:06;;;;;;;5.80;3.43;;;7.20;99.90;;;;;;10398233;28;20251;-77
2022/11/21 23:52:06;;;;;;;7.53;2.57;;;7.20;99.90;;;;;;10385072;28;20225;-77
2022/11/21 23:57:07;;;;;;;6.17;2.93;;;7.20;99.90;;;;;;10396283;28;20217;-75
